sensor_id;sensor_type;location;lat;lon;timestamp;pressure;altitude;pressure_sealevel;temperature;humidity
31775;BME280;66189;49.000;11.640;2023-05-08T00:00:57;96276.19;;;11.75;68.46
31775;BME280;66189;49.000;11.640;2023-05-08T00:02:58;96271.31;;;11.61;69.01
31775;BME280;66189;49.000;11.640;2023-05-08T00:04:58;96267.84;;;11.61;69.10
31775;BME280;66189;49.000;11.640;2023-05-08T00:06:58;96270.22;;;11.66;68.96
31775;BME280;66189;49.000;11.640;2023-05-08T00:08:59;96270.22;;;11.66;68.41
31775;BME280;66189;49.000;11.640;2023-05-08T00:10:59;96268.91;;;11.56;68.55
31775;BME280;66189;49.000;11.640;2023-05-08T00:13:00;96276.06;;;11.48;69.22
31775;BME280;66189;49.000;11.640;2023-05-08T00:15:00;96279.53;;;11.49;69.37
31775;BME280;66189;49.000;11.640;2023-05-08T00:17:01;96275.56;;;11.43;69.38
31775;BME280;66189;49.000;11.640;2023-05-08T00:19:02;96279.97;;;11.51;68.96
31775;BME280;66189;49.000;11.640;2023-05-08T00:21:05;96286.50;;;11.50;69.09
31775;BME280;66189;49.000;11.640;2023-05-08T00:23:05;96281.47;;;11.48;68.75
31775;BME280;66189;49.000;11.640;2023-05-08T00:25:06;96284.72;;;11.38;69.47
31775;BME280;66189;49.000;11.640;2023-05-08T00:27:06;96284.31;;;11.36;69.07
31775;BME280;66189;49.000;11.640;2023-05-08T00:29:10;96285.47;;;11.38;68.65
31775;BME280;66189;49.000;11.640;2023-05-08T00:31:11;96292.84;;;11.42;69.17
31775;BME280;66189;49.000;11.640;2023-05-08T00:33:11;96295.13;;;11.40;69.44
31775;BME280;66189;49.000;11.640;2023-05-08T00:35:11;96293.16;;;11.36;69.16
31775;BME280;66189;49.000;11.640;2023-05-08T00:37:12;96295.81;;;11.17;69.93
31775;BME280;66189;49.000;11.640;2023-05-08T00:39:12;96293.63;;;11.23;69.97
31775;BME280;66189;49.000;11.640;2023-05-08T00:41:12;96297.50;;;11.06;70.22
31775;BME280;66189;49.000;11.640;2023-05-08T00:43:13;96301.13;;;11.13;70.19
31775;BME280;66189;49.000;11.640;2023-05-08T00:45:13;96306.25;;;11.18;70.04
31775;BME280;66189;49.000;11.640;2023-05-08T00:47:14;96302.97;;;11.09;69.96
31775;BME280;66189;49.000;11.640;2023-05-08T00:49:14;96294.13;;;11.09;70.10
31775;BME280;66189;49.000;11.640;2023-05-08T00:51:15;96301.25;;;11.01;70.12
31775;BME280;66189;49.000;11.640;2023-05-08T00:53:16;96302.09;;;11.05;70.14
31775;BME280;66189;49.000;11.640;2023-05-08T00:55:16;96299.41;;;11.05;70.32
31775;BME280;66189;49.000;11.640;2023-05-08T00:57:18;96299.97;;;10.95;70.59
31775;BME280;66189;49.000;11.640;2023-05-08T00:59:19;96291.44;;;10.93;70.54
31775;BME280;66189;49.000;11.640;2023-05-08T01:01:20;96303.78;;;10.94;69.87
31775;BME280;66189;49.000;11.640;2023-05-08T01:03:22;96304.06;;;10.89;70.06
31775;BME280;66189;49.000;11.640;2023-05-08T01:05:24;96297.53;;;10.90;69.66
31775;BME280;66189;49.000;11.640;2023-05-08T01:07:25;96301.38;;;10.89;69.79
31775;BME280;66189;49.000;11.640;2023-05-08T01:09:26;96307.88;;;10.88;69.71
31775;BME280;66189;49.000;11.640;2023-05-08T01:11:32;96315.63;;;10.73;71.02
31775;BME280;66189;49.000;11.640;2023-05-08T01:15:40;96318.31;;;10.73;70.72
31775;BME280;66189;49.000;11.640;2023-05-08T01:21:56;96323.28;;;10.71;70.56
31775;BME280;66189;49.000;11.640;2023-05-08T01:32:49;96327.88;;;10.55;70.42
31775;BME280;66189;49.000;11.640;2023-05-08T01:37:07;96329.13;;;10.29;71.11
31775;BME280;66189;49.000;11.640;2023-05-08T01:39:18;96333.25;;;10.39;71.09
31775;BME280;66189;49.000;11.640;2023-05-08T01:41:24;96339.69;;;10.34;71.13
31775;BME280;66189;49.000;11.640;2023-05-08T01:43:28;96343.69;;;10.40;70.63
31775;BME280;66189;49.000;11.640;2023-05-08T01:45:34;96341.75;;;10.41;70.98
31775;BME280;66189;49.000;11.640;2023-05-08T01:47:37;96351.13;;;10.47;70.84
31775;BME280;66189;49.000;11.640;2023-05-08T01:49:39;96346.53;;;10.47;70.40
31775;BME280;66189;49.000;11.640;2023-05-08T01:51:42;96350.34;;;10.46;70.34
31775;BME280;66189;49.000;11.640;2023-05-08T01:53:44;96356.59;;;10.51;70.63
31775;BME280;66189;49.000;11.640;2023-05-08T01:55:47;96360.25;;;10.42;70.89
31775;BME280;66189;49.000;11.640;2023-05-08T01:57:50;96359.19;;;10.47;70.87
31775;BME280;66189;49.000;11.640;2023-05-08T01:59:51;96353.22;;;10.38;71.09
31775;BME280;66189;49.000;11.640;2023-05-08T02:01:54;96359.88;;;10.44;70.65
31775;BME280;66189;49.000;11.640;2023-05-08T02:03:56;96355.63;;;10.43;70.19
31775;BME280;66189;49.000;11.640;2023-05-08T02:05:57;96364.16;;;10.45;70.73
31775;BME280;66189;49.000;11.640;2023-05-08T02:07:59;96360.59;;;10.41;70.78
31775;BME280;66189;49.000;11.640;2023-05-08T02:10:01;96359.53;;;10.45;70.74
31775;BME280;66189;49.000;11.640;2023-05-08T02:12:03;96365.53;;;10.39;71.28
31775;BME280;66189;49.000;11.640;2023-05-08T02:14:06;96363.69;;;10.43;71.04
31775;BME280;66189;49.000;11.640;2023-05-08T02:16:08;96369.97;;;10.47;70.92
31775;BME280;66189;49.000;11.640;2023-05-08T02:18:10;96368.38;;;10.46;71.23
31775;BME280;66189;49.000;11.640;2023-05-08T02:20:12;96368.28;;;10.26;71.50
31775;BME280;66189;49.000;11.640;2023-05-08T02:22:14;96369.78;;;10.40;70.83
31775;BME280;66189;49.000;11.640;2023-05-08T02:24:16;96365.31;;;10.31;70.96
31775;BME280;66189;49.000;11.640;2023-05-08T02:26:16;96369.69;;;10.36;71.21
31775;BME280;66189;49.000;11.640;2023-05-08T02:28:18;96363.66;;;10.27;71.47
31775;BME280;66189;49.000;11.640;2023-05-08T02:30:18;96360.72;;;10.32;70.80
31775;BME280;66189;49.000;11.640;2023-05-08T02:32:21;96366.09;;;10.32;71.08
31775;BME280;66189;49.000;11.640;2023-05-08T02:34:23;96372.91;;;10.13;71.47
31775;BME280;66189;49.000;11.640;2023-05-08T02:36:24;96370.66;;;10.16;71.66
31775;BME280;66189;49.000;11.640;2023-05-08T02:38:29;96373.06;;;10.05;72.25
31775;BME280;66189;49.000;11.640;2023-05-08T02:40:31;96373.31;;;10.00;73.25
31775;BME280;66189;49.000;11.640;2023-05-08T02:42:32;96378.63;;;10.12;72.73
31775;BME280;66189;49.000;11.640;2023-05-08T02:44:32;96374.63;;;10.06;72.61
31775;BME280;66189;49.000;11.640;2023-05-08T02:46:45;96371.34;;;10.12;72.50
31775;BME280;66189;49.000;11.640;2023-05-08T02:48:54;96370.84;;;10.07;72.34
31775;BME280;66189;49.000;11.640;2023-05-08T02:51:01;96372.91;;;10.13;72.11
31775;BME280;66189;49.000;11.640;2023-05-08T02:53:05;96370.97;;;9.98;71.96
31775;BME280;66189;49.000;11.640;2023-05-08T02:57:20;96369.53;;;9.88;73.01
31775;BME280;66189;49.000;11.640;2023-05-08T02:59:23;96363.41;;;9.88;73.22
31775;BME280;66189;49.000;11.640;2023-05-08T03:01:32;96366.56;;;9.77;73.81
31775;BME280;66189;49.000;11.640;2023-05-08T03:03:37;96362.38;;;9.64;74.39
31775;BME280;66189;49.000;11.640;2023-05-08T03:05:41;96364.84;;;9.57;74.04
31775;BME280;66189;49.000;11.640;2023-05-08T03:07:42;96364.84;;;9.57;74.20
31775;BME280;66189;49.000;11.640;2023-05-08T03:09:46;96375.03;;;9.51;73.98
31775;BME280;66189;49.000;11.640;2023-05-08T03:11:47;96370.47;;;9.39;74.55
31775;BME280;66189;49.000;11.640;2023-05-08T03:13:48;96367.41;;;9.53;74.03
31775;BME280;66189;49.000;11.640;2023-05-08T03:15:53;96374.91;;;9.60;74.89
31775;BME280;66189;49.000;11.640;2023-05-08T03:17:55;96367.06;;;9.55;74.30
31775;BME280;66189;49.000;11.640;2023-05-08T03:19:57;96368.75;;;9.59;73.96
31775;BME280;66189;49.000;11.640;2023-05-08T03:21:59;96372.91;;;9.57;74.03
31775;BME280;66189;49.000;11.640;2023-05-08T03:24:01;96373.63;;;9.41;74.97
31775;BME280;66189;49.000;11.640;2023-05-08T03:26:02;96360.50;;;9.52;74.59
31775;BME280;66189;49.000;11.640;2023-05-08T03:28:04;96364.22;;;9.48;74.21
31775;BME280;66189;49.000;11.640;2023-05-08T03:30:05;96369.03;;;9.42;74.59
31775;BME280;66189;49.000;11.640;2023-05-08T03:32:09;96367.66;;;9.48;74.58
31775;BME280;66189;49.000;11.640;2023-05-08T03:34:11;96376.53;;;9.36;74.93
31775;BME280;66189;49.000;11.640;2023-05-08T03:36:12;96378.91;;;9.25;75.58
31775;BME280;66189;49.000;11.640;2023-05-08T03:38:12;96370.28;;;9.20;75.20
31775;BME280;66189;49.000;11.640;2023-05-08T03:40:13;96372.44;;;9.55;74.88
31775;BME280;66189;49.000;11.640;2023-05-08T03:42:14;96376.19;;;9.38;73.67
31775;BME280;66189;49.000;11.640;2023-05-08T03:44:20;96373.38;;;9.47;74.32
31775;BME280;66189;49.000;11.640;2023-05-08T03:46:21;96370.69;;;9.47;74.35
31775;BME280;66189;49.000;11.640;2023-05-08T03:48:22;96374.75;;;9.28;74.35
31775;BME280;66189;49.000;11.640;2023-05-08T03:50:23;96377.50;;;9.44;74.23
31775;BME280;66189;49.000;11.640;2023-05-08T03:52:23;96377.66;;;9.35;75.01
31775;BME280;66189;49.000;11.640;2023-05-08T03:54:24;96382.78;;;9.40;74.36
31775;BME280;66189;49.000;11.640;2023-05-08T03:56:26;96376.78;;;9.19;74.36
31775;BME280;66189;49.000;11.640;2023-05-08T03:58:30;96383.38;;;9.34;74.70
31775;BME280;66189;49.000;11.640;2023-05-08T04:02:36;96383.34;;;9.46;74.04
31775;BME280;66189;49.000;11.640;2023-05-08T04:04:40;96382.44;;;9.42;74.19
31775;BME280;66189;49.000;11.640;2023-05-08T04:07:05;96387.16;;;9.33;74.87
31775;BME280;66189;49.000;11.640;2023-05-08T04:09:17;96386.19;;;9.25;74.71
31775;BME280;66189;49.000;11.640;2023-05-08T04:13:30;96387.88;;;9.17;75.37
31775;BME280;66189;49.000;11.640;2023-05-08T04:15:32;96384.06;;;9.06;75.15
31775;BME280;66189;49.000;11.640;2023-05-08T04:17:48;96383.59;;;9.16;74.34
31775;BME280;66189;49.000;11.640;2023-05-08T04:19:50;96387.06;;;9.04;75.75
31775;BME280;66189;49.000;11.640;2023-05-08T04:21:55;96385.06;;;9.01;75.81
31775;BME280;66189;49.000;11.640;2023-05-08T04:23:56;96389.09;;;8.95;75.86
31775;BME280;66189;49.000;11.640;2023-05-08T04:25:58;96388.53;;;8.89;75.58
31775;BME280;66189;49.000;11.640;2023-05-08T04:27:59;96394.03;;;8.93;75.85
31775;BME280;66189;49.000;11.640;2023-05-08T04:30:02;96391.91;;;8.99;76.03
31775;BME280;66189;49.000;11.640;2023-05-08T04:32:04;96387.06;;;8.92;76.47
31775;BME280;66189;49.000;11.640;2023-05-08T04:34:05;96395.56;;;8.94;76.54
31775;BME280;66189;49.000;11.640;2023-05-08T04:36:12;96395.81;;;9.01;75.83
31775;BME280;66189;49.000;11.640;2023-05-08T04:38:13;96398.47;;;8.89;75.51
31775;BME280;66189;49.000;11.640;2023-05-08T04:40:14;96407.88;;;8.95;75.79
31775;BME280;66189;49.000;11.640;2023-05-08T04:42:15;96407.88;;;8.83;75.89
31775;BME280;66189;49.000;11.640;2023-05-08T04:44:16;96408.09;;;8.90;75.99
31775;BME280;66189;49.000;11.640;2023-05-08T04:46:16;96405.44;;;8.90;75.74
31775;BME280;66189;49.000;11.640;2023-05-08T04:48:16;96406.09;;;8.75;76.36
31775;BME280;66189;49.000;11.640;2023-05-08T04:50:18;96412.56;;;8.74;76.05
31775;BME280;66189;49.000;11.640;2023-05-08T04:52:19;96409.31;;;8.80;76.45
31775;BME280;66189;49.000;11.640;2023-05-08T04:54:20;96417.25;;;8.77;75.93
31775;BME280;66189;49.000;11.640;2023-05-08T04:56:20;96423.75;;;8.88;75.94
31775;BME280;66189;49.000;11.640;2023-05-08T04:58:22;96420.38;;;8.79;76.14
31775;BME280;66189;49.000;11.640;2023-05-08T05:00:22;96416.94;;;8.78;76.36
31775;BME280;66189;49.000;11.640;2023-05-08T05:02:24;96421.84;;;8.76;76.34
31775;BME280;66189;49.000;11.640;2023-05-08T05:04:25;96423.72;;;8.76;76.75
31775;BME280;66189;49.000;11.640;2023-05-08T05:06:28;96421.72;;;8.85;76.05
31775;BME280;66189;49.000;11.640;2023-05-08T05:08:30;96416.81;;;8.87;76.19
31775;BME280;66189;49.000;11.640;2023-05-08T05:10:32;96418.59;;;8.83;76.36
31775;BME280;66189;49.000;11.640;2023-05-08T05:12:32;96419.38;;;8.83;76.21
31775;BME280;66189;49.000;11.640;2023-05-08T05:14:33;96428.00;;;8.89;76.29
31775;BME280;66189;49.000;11.640;2023-05-08T05:16:33;96420.63;;;8.86;75.65
31775;BME280;66189;49.000;11.640;2023-05-08T05:18:34;96426.66;;;8.95;75.66
31775;BME280;66189;49.000;11.640;2023-05-08T05:20:35;96422.19;;;8.99;75.14
31775;BME280;66189;49.000;11.640;2023-05-08T05:22:36;96420.97;;;9.09;75.36
31775;BME280;66189;49.000;11.640;2023-05-08T05:24:36;96421.75;;;9.10;76.32
31775;BME280;66189;49.000;11.640;2023-05-08T05:26:38;96425.22;;;9.22;75.19
31775;BME280;66189;49.000;11.640;2023-05-08T05:28:39;96420.19;;;9.21;75.44
31775;BME280;66189;49.000;11.640;2023-05-08T05:30:39;96431.34;;;9.23;74.96
31775;BME280;66189;49.000;11.640;2023-05-08T05:32:40;96428.13;;;9.30;75.21
31775;BME280;66189;49.000;11.640;2023-05-08T05:34:41;96428.88;;;9.42;75.12
31775;BME280;66189;49.000;11.640;2023-05-08T05:36:41;96436.81;;;9.51;74.82
31775;BME280;66189;49.000;11.640;2023-05-08T05:38:42;96440.41;;;9.55;74.60
31775;BME280;66189;49.000;11.640;2023-05-08T05:40:42;96442.28;;;9.55;74.44
31775;BME280;66189;49.000;11.640;2023-05-08T05:42:47;96442.16;;;9.64;74.45
31775;BME280;66189;49.000;11.640;2023-05-08T05:44:47;96440.28;;;9.64;74.48
31775;BME280;66189;49.000;11.640;2023-05-08T05:46:48;96445.66;;;9.64;74.53
31775;BME280;66189;49.000;11.640;2023-05-08T05:48:48;96445.97;;;9.75;74.10
31775;BME280;66189;49.000;11.640;2023-05-08T05:50:48;96451.66;;;9.86;73.66
31775;BME280;66189;49.000;11.640;2023-05-08T05:52:49;96447.13;;;10.02;73.55
31775;BME280;66189;49.000;11.640;2023-05-08T05:54:50;96450.50;;;9.87;73.18
31775;BME280;66189;49.000;11.640;2023-05-08T05:56:50;96453.78;;;9.80;73.88
31775;BME280;66189;49.000;11.640;2023-05-08T05:58:51;96456.78;;;9.91;73.31
31775;BME280;66189;49.000;11.640;2023-05-08T06:00:51;96456.00;;;9.90;73.72
31775;BME280;66189;49.000;11.640;2023-05-08T06:02:52;96456.97;;;9.98;73.68
31775;BME280;66189;49.000;11.640;2023-05-08T06:04:52;96454.16;;;10.07;73.90
31775;BME280;66189;49.000;11.640;2023-05-08T06:06:53;96456.16;;;10.10;73.13
31775;BME280;66189;49.000;11.640;2023-05-08T06:08:53;96454.81;;;10.16;72.66
31775;BME280;66189;49.000;11.640;2023-05-08T06:10:56;96457.16;;;10.18;73.19
31775;BME280;66189;49.000;11.640;2023-05-08T06:12:56;96454.13;;;10.19;73.22
31775;BME280;66189;49.000;11.640;2023-05-08T06:14:57;96450.13;;;10.29;72.19
31775;BME280;66189;49.000;11.640;2023-05-08T06:16:57;96459.75;;;10.42;72.93
31775;BME280;66189;49.000;11.640;2023-05-08T06:18:59;96454.06;;;10.60;72.43
31775;BME280;66189;49.000;11.640;2023-05-08T06:20:59;96452.16;;;10.76;72.25
31775;BME280;66189;49.000;11.640;2023-05-08T06:23:00;96452.81;;;10.86;71.90
31775;BME280;66189;49.000;11.640;2023-05-08T06:25:00;96456.53;;;10.97;72.44
31775;BME280;66189;49.000;11.640;2023-05-08T06:27:01;96454.16;;;11.11;71.69
31775;BME280;66189;49.000;11.640;2023-05-08T06:29:01;96457.38;;;11.17;71.24
31775;BME280;66189;49.000;11.640;2023-05-08T06:31:01;96453.06;;;11.12;71.89
31775;BME280;66189;49.000;11.640;2023-05-08T06:33:02;96457.56;;;11.24;73.45
31775;BME280;66189;49.000;11.640;2023-05-08T06:35:03;96459.88;;;11.42;71.60
31775;BME280;66189;49.000;11.640;2023-05-08T06:37:03;96462.75;;;11.49;71.51
31775;BME280;66189;49.000;11.640;2023-05-08T06:39:04;96458.94;;;11.50;71.43
31775;BME280;66189;49.000;11.640;2023-05-08T06:41:07;96461.94;;;11.64;70.05
31775;BME280;66189;49.000;11.640;2023-05-08T06:43:08;96457.38;;;11.84;69.93
31775;BME280;66189;49.000;11.640;2023-05-08T06:45:08;96461.50;;;11.98;69.40
31775;BME280;66189;49.000;11.640;2023-05-08T06:47:08;96459.63;;;12.18;69.89
31775;BME280;66189;49.000;11.640;2023-05-08T06:49:09;96464.22;;;12.17;68.78
31775;BME280;66189;49.000;11.640;2023-05-08T06:51:09;96468.78;;;12.13;68.86
31775;BME280;66189;49.000;11.640;2023-05-08T06:53:10;96465.22;;;12.09;68.06
31775;BME280;66189;49.000;11.640;2023-05-08T06:55:10;96463.31;;;12.29;69.25
31775;BME280;66189;49.000;11.640;2023-05-08T06:57:10;96465.06;;;12.41;69.14
31775;BME280;66189;49.000;11.640;2023-05-08T06:59:12;96469.34;;;12.42;68.56
31775;BME280;66189;49.000;11.640;2023-05-08T07:01:13;96469.03;;;12.47;70.00
31775;BME280;66189;49.000;11.640;2023-05-08T07:03:14;96465.16;;;12.68;69.66
31775;BME280;66189;49.000;11.640;2023-05-08T07:05:14;96471.13;;;12.77;68.08
31775;BME280;66189;49.000;11.640;2023-05-08T07:07:15;96466.75;;;12.92;69.12
31775;BME280;66189;49.000;11.640;2023-05-08T07:09:15;96468.69;;;12.91;67.17
31775;BME280;66189;49.000;11.640;2023-05-08T07:11:16;96473.66;;;13.12;65.93
31775;BME280;66189;49.000;11.640;2023-05-08T07:13:16;96470.34;;;13.00;65.56
31775;BME280;66189;49.000;11.640;2023-05-08T07:15:20;96462.72;;;12.82;67.83
31775;BME280;66189;49.000;11.640;2023-05-08T07:17:21;96469.16;;;12.74;67.88
31775;BME280;66189;49.000;11.640;2023-05-08T07:19:21;96466.59;;;12.61;68.37
31775;BME280;66189;49.000;11.640;2023-05-08T07:21:22;96469.25;;;12.38;65.48
31775;BME280;66189;49.000;11.640;2023-05-08T07:23:22;96473.16;;;12.41;68.94
31775;BME280;66189;49.000;11.640;2023-05-08T07:25:23;96473.44;;;12.55;68.41
31775;BME280;66189;49.000;11.640;2023-05-08T07:27:23;96475.59;;;12.69;68.98
31775;BME280;66189;49.000;11.640;2023-05-08T07:29:24;96473.34;;;12.94;68.74
31775;BME280;66189;49.000;11.640;2023-05-08T07:31:24;96468.19;;;13.32;66.71
31775;BME280;66189;49.000;11.640;2023-05-08T07:33:25;96469.75;;;13.56;67.59
31775;BME280;66189;49.000;11.640;2023-05-08T07:35:25;96470.00;;;13.47;64.34
31775;BME280;66189;49.000;11.640;2023-05-08T07:37:26;96470.88;;;13.32;65.57
31775;BME280;66189;49.000;11.640;2023-05-08T07:39:28;96475.16;;;13.33;66.11
31775;BME280;66189;49.000;11.640;2023-05-08T07:41:28;96475.59;;;13.35;68.67
31775;BME280;66189;49.000;11.640;2023-05-08T07:43:29;96475.50;;;13.31;64.16
31775;BME280;66189;49.000;11.640;2023-05-08T07:45:29;96480.28;;;13.38;64.96
31775;BME280;66189;49.000;11.640;2023-05-08T07:47:30;96473.91;;;13.50;62.28
31775;BME280;66189;49.000;11.640;2023-05-08T07:49:30;96469.75;;;13.56;64.04
31775;BME280;66189;49.000;11.640;2023-05-08T07:51:30;96483.97;;;13.80;64.31
31775;BME280;66189;49.000;11.640;2023-05-08T07:53:31;96477.38;;;13.77;64.74
31775;BME280;66189;49.000;11.640;2023-05-08T07:55:31;96482.47;;;13.56;62.80
31775;BME280;66189;49.000;11.640;2023-05-08T07:57:41;96477.69;;;13.45;63.67
31775;BME280;66189;49.000;11.640;2023-05-08T07:59:42;96474.09;;;13.64;64.15
31775;BME280;66189;49.000;11.640;2023-05-08T08:01:42;96477.78;;;13.79;66.19
31775;BME280;66189;49.000;11.640;2023-05-08T08:03:46;96474.19;;;13.98;63.55
31775;BME280;66189;49.000;11.640;2023-05-08T08:05:46;96479.41;;;13.84;64.91
31775;BME280;66189;49.000;11.640;2023-05-08T08:07:46;96477.91;;;13.86;63.64
31775;BME280;66189;49.000;11.640;2023-05-08T08:09:47;96474.47;;;13.90;61.98
31775;BME280;66189;49.000;11.640;2023-05-08T08:11:47;96477.94;;;13.90;63.17
31775;BME280;66189;49.000;11.640;2023-05-08T08:13:50;96482.94;;;13.61;62.63
31775;BME280;66189;49.000;11.640;2023-05-08T08:15:50;96475.31;;;13.67;64.38
31775;BME280;66189;49.000;11.640;2023-05-08T08:17:51;96471.69;;;13.86;65.46
31775;BME280;66189;49.000;11.640;2023-05-08T08:19:51;96477.63;;;13.95;66.31
31775;BME280;66189;49.000;11.640;2023-05-08T08:21:52;96467.22;;;14.31;62.77
31775;BME280;66189;49.000;11.640;2023-05-08T08:23:52;96475.06;;;14.40;63.22
31775;BME280;66189;49.000;11.640;2023-05-08T08:25:53;96472.38;;;14.40;61.83
31775;BME280;66189;49.000;11.640;2023-05-08T08:27:53;96476.69;;;14.48;59.31
31775;BME280;66189;49.000;11.640;2023-05-08T08:29:54;96475.47;;;14.42;58.87
31775;BME280;66189;49.000;11.640;2023-05-08T08:31:54;96473.06;;;14.33;62.09
31775;BME280;66189;49.000;11.640;2023-05-08T08:33:54;96467.09;;;14.54;62.18
31775;BME280;66189;49.000;11.640;2023-05-08T08:35:56;96475.75;;;14.64;61.34
31775;BME280;66189;49.000;11.640;2023-05-08T08:37:58;96472.91;;;14.90;60.85
31775;BME280;66189;49.000;11.640;2023-05-08T08:39:59;96471.41;;;14.97;58.86
31775;BME280;66189;49.000;11.640;2023-05-08T08:42:00;96474.81;;;15.31;61.74
31775;BME280;66189;49.000;11.640;2023-05-08T08:44:01;96479.72;;;15.15;59.07
31775;BME280;66189;49.000;11.640;2023-05-08T08:46:09;96478.81;;;15.48;60.26
31775;BME280;66189;49.000;11.640;2023-05-08T08:48:10;96476.75;;;15.86;60.59
31775;BME280;66189;49.000;11.640;2023-05-08T08:50:14;96479.47;;;15.83;59.96
31775;BME280;66189;49.000;11.640;2023-05-08T08:54:19;96486.16;;;16.03;57.88
31775;BME280;66189;49.000;11.640;2023-05-08T08:56:20;96480.44;;;16.19;56.41
31775;BME280;66189;49.000;11.640;2023-05-08T09:00:27;96476.97;;;16.26;58.49
31775;BME280;66189;49.000;11.640;2023-05-08T09:02:28;96478.56;;;16.41;57.64
31775;BME280;66189;49.000;11.640;2023-05-08T09:04:30;96477.03;;;16.44;57.83
31775;BME280;66189;49.000;11.640;2023-05-08T09:06:36;96473.84;;;16.24;57.06
31775;BME280;66189;49.000;11.640;2023-05-08T09:08:37;96480.47;;;16.30;60.00
31775;BME280;66189;49.000;11.640;2023-05-08T09:10:38;96473.34;;;16.00;56.31
31775;BME280;66189;49.000;11.640;2023-05-08T09:12:38;96472.00;;;15.72;60.63
31775;BME280;66189;49.000;11.640;2023-05-08T09:14:42;96472.56;;;15.99;59.26
31775;BME280;66189;49.000;11.640;2023-05-08T09:16:42;96472.91;;;15.87;57.46
31775;BME280;66189;49.000;11.640;2023-05-08T09:18:44;96469.75;;;15.78;59.42
31775;BME280;66189;49.000;11.640;2023-05-08T09:20:44;96465.16;;;15.89;57.44
31775;BME280;66189;49.000;11.640;2023-05-08T09:22:45;96473.06;;;16.16;58.49
31775;BME280;66189;49.000;11.640;2023-05-08T09:24:55;96461.47;;;16.26;59.18
31775;BME280;66189;49.000;11.640;2023-05-08T09:26:56;96468.47;;;16.31;60.42
31775;BME280;66189;49.000;11.640;2023-05-08T09:29:15;96472.75;;;16.36;55.82
31775;BME280;66189;49.000;11.640;2023-05-08T09:31:16;96469.22;;;16.35;57.80
31775;BME280;66189;49.000;11.640;2023-05-08T09:33:16;96468.84;;;16.37;55.35
31775;BME280;66189;49.000;11.640;2023-05-08T09:35:17;96473.09;;;16.27;56.03
31775;BME280;66189;49.000;11.640;2023-05-08T09:37:17;96474.63;;;16.17;60.16
31775;BME280;66189;49.000;11.640;2023-05-08T09:39:21;96477.72;;;16.23;58.05
31775;BME280;66189;49.000;11.640;2023-05-08T09:41:22;96474.16;;;16.04;56.36
31775;BME280;66189;49.000;11.640;2023-05-08T09:43:23;96469.09;;;16.06;55.36
31775;BME280;66189;49.000;11.640;2023-05-08T09:45:27;96475.78;;;16.20;58.87
31775;BME280;66189;49.000;11.640;2023-05-08T09:47:28;96468.84;;;16.33;58.44
31775;BME280;66189;49.000;11.640;2023-05-08T09:49:28;96478.91;;;16.22;60.96
31775;BME280;66189;49.000;11.640;2023-05-08T09:51:29;96477.84;;;16.55;60.10
31775;BME280;66189;49.000;11.640;2023-05-08T09:53:30;96478.56;;;16.38;59.34
31775;BME280;66189;49.000;11.640;2023-05-08T09:55:44;96483.09;;;16.12;57.42
31775;BME280;66189;49.000;11.640;2023-05-08T09:57:55;96487.34;;;16.09;56.06
31775;BME280;66189;49.000;11.640;2023-05-08T09:59:59;96488.00;;;15.85;57.44
31775;BME280;66189;49.000;11.640;2023-05-08T10:02:00;96486.47;;;15.87;56.31
31775;BME280;66189;49.000;11.640;2023-05-08T10:04:09;96484.59;;;15.98;56.88
31775;BME280;66189;49.000;11.640;2023-05-08T10:06:12;96490.84;;;16.10;56.52
31775;BME280;66189;49.000;11.640;2023-05-08T10:08:20;96485.38;;;16.03;58.72
31775;BME280;66189;49.000;11.640;2023-05-08T10:10:21;96485.09;;;16.19;58.10
31775;BME280;66189;49.000;11.640;2023-05-08T10:12:22;96494.84;;;16.34;56.03
31775;BME280;66189;49.000;11.640;2023-05-08T10:14:22;96482.50;;;16.55;55.30
31775;BME280;66189;49.000;11.640;2023-05-08T10:16:23;96493.66;;;16.35;58.26
31775;BME280;66189;49.000;11.640;2023-05-08T10:18:24;96491.06;;;16.60;58.42
31775;BME280;66189;49.000;11.640;2023-05-08T10:20:27;96491.09;;;16.82;59.17
31775;BME280;66189;49.000;11.640;2023-05-08T10:22:28;96483.28;;;16.55;59.35
31775;BME280;66189;49.000;11.640;2023-05-08T10:24:31;96481.41;;;16.84;58.43
31775;BME280;66189;49.000;11.640;2023-05-08T10:26:32;96481.81;;;16.79;54.82
31775;BME280;66189;49.000;11.640;2023-05-08T10:28:42;96483.63;;;16.50;58.28
31775;BME280;66189;49.000;11.640;2023-05-08T10:30:46;96480.56;;;16.62;57.41
31775;BME280;66189;49.000;11.640;2023-05-08T10:32:46;96484.75;;;16.38;57.15
31775;BME280;66189;49.000;11.640;2023-05-08T10:34:51;96473.19;;;16.56;54.03
31775;BME280;66189;49.000;11.640;2023-05-08T10:36:52;96484.44;;;16.58;58.40
31775;BME280;66189;49.000;11.640;2023-05-08T10:38:53;96477.00;;;16.37;55.73
31775;BME280;66189;49.000;11.640;2023-05-08T10:40:53;96485.47;;;16.21;57.91
31775;BME280;66189;49.000;11.640;2023-05-08T10:42:57;96482.38;;;16.19;57.23
31775;BME280;66189;49.000;11.640;2023-05-08T10:44:57;96475.72;;;16.09;58.70
31775;BME280;66189;49.000;11.640;2023-05-08T10:47:10;96474.63;;;16.17;58.62
31775;BME280;66189;49.000;11.640;2023-05-08T10:49:19;96473.78;;;16.09;57.96
31775;BME280;66189;49.000;11.640;2023-05-08T10:51:36;96471.56;;;16.29;55.90
31775;BME280;66189;49.000;11.640;2023-05-08T10:53:50;96474.53;;;16.06;57.78
31775;BME280;66189;49.000;11.640;2023-05-08T10:55:52;96473.84;;;16.24;56.11
31775;BME280;66189;49.000;11.640;2023-05-08T10:58:04;96475.00;;;16.19;58.65
31775;BME280;66189;49.000;11.640;2023-05-08T11:00:06;96473.38;;;16.07;56.56
31775;BME280;66189;49.000;11.640;2023-05-08T11:02:06;96471.47;;;16.15;57.82
31775;BME280;66189;49.000;11.640;2023-05-08T11:04:18;96469.22;;;16.28;58.32
31775;BME280;66189;49.000;11.640;2023-05-08T11:08:50;96472.66;;;16.17;61.14
31775;BME280;66189;49.000;11.640;2023-05-08T11:10:51;96465.75;;;16.38;61.13